sensor_id;sensor_type;location;lat;lon;timestamp;P1;durP1;ratioP1;P2;durP2;ratioP2
9773;SDS011;4926;42.670;23.316;2023-03-19T00:00:13;15.30;;;9.27;;
9773;SDS011;4926;42.670;23.316;2023-03-19T00:02:40;15.73;;;10.10;;
9773;SDS011;4926;42.670;23.316;2023-03-19T00:05:13;14.65;;;9.75;;
9773;SDS011;4926;42.670;23.316;2023-03-19T00:07:40;16.55;;;9.93;;
9773;SDS011;4926;42.670;23.316;2023-03-19T00:10:07;18.52;;;11.48;;
9773;SDS011;4926;42.670;23.316;2023-03-19T00:12:35;26.63;;;11.25;;
9773;SDS011;4926;42.670;23.316;2023-03-19T00:15:02;18.85;;;11.10;;
9773;SDS011;4926;42.670;23.316;2023-03-19T00:17:30;17.67;;;10.57;;
9773;SDS011;4926;42.670;23.316;2023-03-19T00:19:57;16.73;;;10.38;;
9773;SDS011;4926;42.670;23.316;2023-03-19T00:22:23;17.52;;;11.00;;
9773;SDS011;4926;42.670;23.316;2023-03-19T00:24:50;15.40;;;10.65;;
9773;SDS011;4926;42.670;23.316;2023-03-19T00:27:17;15.52;;;10.23;;
9773;SDS011;4926;42.670;23.316;2023-03-19T00:29:44;17.95;;;11.30;;
9773;SDS011;4926;42.670;23.316;2023-03-19T00:32:11;12.80;;;9.63;;
9773;SDS011;4926;42.670;23.316;2023-03-19T00:34:40;15.88;;;10.80;;
9773;SDS011;4926;42.670;23.316;2023-03-19T00:37:06;16.73;;;9.80;;
9773;SDS011;4926;42.670;23.316;2023-03-19T00:39:33;13.98;;;9.93;;
9773;SDS011;4926;42.670;23.316;2023-03-19T00:42:00;15.27;;;10.02;;
9773;SDS011;4926;42.670;23.316;2023-03-19T00:44:27;15.35;;;10.25;;
9773;SDS011;4926;42.670;23.316;2023-03-19T00:46:54;17.58;;;10.05;;
9773;SDS011;4926;42.670;23.316;2023-03-19T00:49:21;14.95;;;9.65;;
9773;SDS011;4926;42.670;23.316;2023-03-19T00:51:49;15.73;;;10.32;;
9773;SDS011;4926;42.670;23.316;2023-03-19T00:54:18;18.67;;;10.40;;
9773;SDS011;4926;42.670;23.316;2023-03-19T00:56:48;16.98;;;9.60;;
9773;SDS011;4926;42.670;23.316;2023-03-19T00:59:17;19.25;;;10.43;;
9773;SDS011;4926;42.670;23.316;2023-03-19T01:01:44;17.08;;;10.90;;
9773;SDS011;4926;42.670;23.316;2023-03-19T01:04:13;16.10;;;9.93;;
9773;SDS011;4926;42.670;23.316;2023-03-19T01:06:43;17.40;;;10.68;;
9773;SDS011;4926;42.670;23.316;2023-03-19T01:09:11;21.05;;;10.38;;
9773;SDS011;4926;42.670;23.316;2023-03-19T01:11:38;18.48;;;11.15;;
9773;SDS011;4926;42.670;23.316;2023-03-19T01:14:05;16.60;;;11.20;;
9773;SDS011;4926;42.670;23.316;2023-03-19T01:16:34;17.50;;;10.70;;
9773;SDS011;4926;42.670;23.316;2023-03-19T01:19:00;18.25;;;11.05;;
9773;SDS011;4926;42.670;23.316;2023-03-19T01:21:28;19.85;;;11.35;;
9773;SDS011;4926;42.670;23.316;2023-03-19T01:23:55;18.17;;;12.05;;
9773;SDS011;4926;42.670;23.316;2023-03-19T01:26:23;17.20;;;12.23;;
9773;SDS011;4926;42.670;23.316;2023-03-19T01:28:51;20.48;;;11.82;;
9773;SDS011;4926;42.670;23.316;2023-03-19T01:31:18;18.30;;;12.38;;
9773;SDS011;4926;42.670;23.316;2023-03-19T01:33:45;21.98;;;12.35;;
9773;SDS011;4926;42.670;23.316;2023-03-19T01:36:13;19.65;;;11.27;;
9773;SDS011;4926;42.670;23.316;2023-03-19T01:38:43;20.23;;;11.93;;
9773;SDS011;4926;42.670;23.316;2023-03-19T01:41:10;21.48;;;12.50;;
9773;SDS011;4926;42.670;23.316;2023-03-19T01:43:38;20.27;;;11.90;;
9773;SDS011;4926;42.670;23.316;2023-03-19T01:46:06;16.00;;;12.10;;
9773;SDS011;4926;42.670;23.316;2023-03-19T01:48:40;19.65;;;12.65;;
9773;SDS011;4926;42.670;23.316;2023-03-19T01:51:10;17.67;;;11.57;;
9773;SDS011;4926;42.670;23.316;2023-03-19T01:53:39;19.15;;;12.55;;
9773;SDS011;4926;42.670;23.316;2023-03-19T01:56:13;17.95;;;11.90;;
9773;SDS011;4926;42.670;23.316;2023-03-19T01:58:54;17.67;;;11.63;;
9773;SDS011;4926;42.670;23.316;2023-03-19T02:01:24;26.35;;;13.10;;
9773;SDS011;4926;42.670;23.316;2023-03-19T02:03:55;20.85;;;12.80;;
9773;SDS011;4926;42.670;23.316;2023-03-19T02:06:26;20.40;;;12.85;;
9773;SDS011;4926;42.670;23.316;2023-03-19T02:08:54;21.13;;;13.15;;
9773;SDS011;4926;42.670;23.316;2023-03-19T02:11:23;21.10;;;12.48;;
9773;SDS011;4926;42.670;23.316;2023-03-19T02:13:54;18.95;;;11.73;;
9773;SDS011;4926;42.670;23.316;2023-03-19T02:16:23;21.05;;;13.02;;
9773;SDS011;4926;42.670;23.316;2023-03-19T02:18:53;24.42;;;13.90;;
9773;SDS011;4926;42.670;23.316;2023-03-19T02:21:21;20.52;;;12.30;;
9773;SDS011;4926;42.670;23.316;2023-03-19T02:23:50;24.20;;;12.15;;
9773;SDS011;4926;42.670;23.316;2023-03-19T02:26:24;22.02;;;12.32;;
9773;SDS011;4926;42.670;23.316;2023-03-19T02:28:54;19.13;;;12.02;;
9773;SDS011;4926;42.670;23.316;2023-03-19T02:31:21;19.88;;;11.48;;
9773;SDS011;4926;42.670;23.316;2023-03-19T02:33:55;22.30;;;13.07;;
9773;SDS011;4926;42.670;23.316;2023-03-19T02:36:23;17.58;;;12.05;;
9773;SDS011;4926;42.670;23.316;2023-03-19T02:38:55;23.10;;;13.45;;
9773;SDS011;4926;42.670;23.316;2023-03-19T02:41:28;17.52;;;11.93;;
9773;SDS011;4926;42.670;23.316;2023-03-19T02:43:56;20.02;;;12.90;;
9773;SDS011;4926;42.670;23.316;2023-03-19T02:46:25;22.65;;;12.88;;
9773;SDS011;4926;42.670;23.316;2023-03-19T02:48:52;20.98;;;13.73;;
9773;SDS011;4926;42.670;23.316;2023-03-19T02:51:19;22.42;;;13.18;;
9773;SDS011;4926;42.670;23.316;2023-03-19T02:53:47;19.98;;;11.70;;
9773;SDS011;4926;42.670;23.316;2023-03-19T02:56:14;20.15;;;12.25;;
9773;SDS011;4926;42.670;23.316;2023-03-19T02:58:42;18.85;;;12.07;;
9773;SDS011;4926;42.670;23.316;2023-03-19T03:01:09;20.17;;;12.63;;
9773;SDS011;4926;42.670;23.316;2023-03-19T03:03:35;22.63;;;13.18;;
9773;SDS011;4926;42.670;23.316;2023-03-19T03:06:03;20.42;;;12.88;;
9773;SDS011;4926;42.670;23.316;2023-03-19T03:08:30;21.05;;;13.23;;
9773;SDS011;4926;42.670;23.316;2023-03-19T03:10:57;20.30;;;12.52;;
9773;SDS011;4926;42.670;23.316;2023-03-19T03:13:27;24.92;;;13.75;;
9773;SDS011;4926;42.670;23.316;2023-03-19T03:15:55;21.00;;;12.93;;
9773;SDS011;4926;42.670;23.316;2023-03-19T03:18:21;20.92;;;13.18;;
9773;SDS011;4926;42.670;23.316;2023-03-19T03:20:48;18.02;;;12.75;;
9773;SDS011;4926;42.670;23.316;2023-03-19T03:23:15;21.40;;;12.75;;
9773;SDS011;4926;42.670;23.316;2023-03-19T03:25:42;21.63;;;13.30;;
9773;SDS011;4926;42.670;23.316;2023-03-19T03:28:08;21.88;;;13.27;;
9773;SDS011;4926;42.670;23.316;2023-03-19T03:30:36;19.65;;;13.15;;
9773;SDS011;4926;42.670;23.316;2023-03-19T03:33:04;25.50;;;13.90;;
9773;SDS011;4926;42.670;23.316;2023-03-19T03:35:31;25.90;;;15.25;;
9773;SDS011;4926;42.670;23.316;2023-03-19T03:37:58;21.13;;;14.77;;
9773;SDS011;4926;42.670;23.316;2023-03-19T03:40:24;24.02;;;13.45;;
9773;SDS011;4926;42.670;23.316;2023-03-19T03:42:51;20.48;;;12.55;;
9773;SDS011;4926;42.670;23.316;2023-03-19T03:45:18;17.17;;;10.52;;
9773;SDS011;4926;42.670;23.316;2023-03-19T03:47:44;15.57;;;10.45;;
9773;SDS011;4926;42.670;23.316;2023-03-19T03:50:13;20.90;;;10.68;;
9773;SDS011;4926;42.670;23.316;2023-03-19T03:52:40;15.82;;;9.85;;
9773;SDS011;4926;42.670;23.316;2023-03-19T03:55:07;17.73;;;10.23;;
9773;SDS011;4926;42.670;23.316;2023-03-19T03:57:35;17.23;;;10.50;;
9773;SDS011;4926;42.670;23.316;2023-03-19T04:00:02;16.83;;;10.48;;
9773;SDS011;4926;42.670;23.316;2023-03-19T04:02:34;17.30;;;10.57;;
9773;SDS011;4926;42.670;23.316;2023-03-19T04:05:00;14.20;;;10.05;;
9773;SDS011;4926;42.670;23.316;2023-03-19T04:07:30;17.38;;;10.52;;
9773;SDS011;4926;42.670;23.316;2023-03-19T04:09:56;15.68;;;10.90;;
9773;SDS011;4926;42.670;23.316;2023-03-19T04:12:24;18.23;;;11.63;;
9773;SDS011;4926;42.670;23.316;2023-03-19T04:14:53;19.80;;;11.77;;
9773;SDS011;4926;42.670;23.316;2023-03-19T04:17:25;17.73;;;11.30;;
9773;SDS011;4926;42.670;23.316;2023-03-19T04:19:53;17.00;;;10.82;;
9773;SDS011;4926;42.670;23.316;2023-03-19T04:22:19;20.75;;;11.00;;
9773;SDS011;4926;42.670;23.316;2023-03-19T04:24:48;19.73;;;9.60;;
9773;SDS011;4926;42.670;23.316;2023-03-19T04:27:15;16.05;;;10.25;;
9773;SDS011;4926;42.670;23.316;2023-03-19T04:29:42;15.05;;;11.00;;
9773;SDS011;4926;42.670;23.316;2023-03-19T04:32:08;20.48;;;11.07;;
9773;SDS011;4926;42.670;23.316;2023-03-19T04:34:35;18.67;;;10.70;;
9773;SDS011;4926;42.670;23.316;2023-03-19T04:37:02;18.38;;;10.93;;
9773;SDS011;4926;42.670;23.316;2023-03-19T04:39:53;15.52;;;10.07;;
9773;SDS011;4926;42.670;23.316;2023-03-19T04:42:20;14.00;;;9.82;;
9773;SDS011;4926;42.670;23.316;2023-03-19T04:44:48;16.67;;;10.02;;
9773;SDS011;4926;42.670;23.316;2023-03-19T04:47:15;17.48;;;9.30;;
9773;SDS011;4926;42.670;23.316;2023-03-19T04:49:42;16.98;;;10.90;;
9773;SDS011;4926;42.670;23.316;2023-03-19T04:52:11;16.48;;;10.30;;
9773;SDS011;4926;42.670;23.316;2023-03-19T04:54:38;20.02;;;11.07;;
9773;SDS011;4926;42.670;23.316;2023-03-19T04:57:06;19.83;;;11.15;;
9773;SDS011;4926;42.670;23.316;2023-03-19T04:59:43;19.33;;;10.68;;
9773;SDS011;4926;42.670;23.316;2023-03-19T05:02:10;16.85;;;11.38;;
9773;SDS011;4926;42.670;23.316;2023-03-19T05:04:37;19.10;;;11.70;;
9773;SDS011;4926;42.670;23.316;2023-03-19T05:07:04;23.15;;;11.75;;
9773;SDS011;4926;42.670;23.316;2023-03-19T05:09:33;18.70;;;11.52;;
9773;SDS011;4926;42.670;23.316;2023-03-19T05:12:03;20.73;;;10.90;;
9773;SDS011;4926;42.670;23.316;2023-03-19T05:14:32;18.15;;;10.82;;
9773;SDS011;4926;42.670;23.316;2023-03-19T05:16:58;17.48;;;10.77;;
9773;SDS011;4926;42.670;23.316;2023-03-19T05:19:25;17.63;;;11.05;;
9773;SDS011;4926;42.670;23.316;2023-03-19T05:21:52;19.42;;;11.80;;
9773;SDS011;4926;42.670;23.316;2023-03-19T05:24:21;20.88;;;11.95;;
9773;SDS011;4926;42.670;23.316;2023-03-19T05:26:48;16.05;;;10.35;;
9773;SDS011;4926;42.670;23.316;2023-03-19T05:29:15;19.00;;;11.88;;
9773;SDS011;4926;42.670;23.316;2023-03-19T05:31:43;19.63;;;13.18;;
9773;SDS011;4926;42.670;23.316;2023-03-19T05:34:09;17.90;;;12.00;;
9773;SDS011;4926;42.670;23.316;2023-03-19T05:36:38;20.27;;;12.43;;
9773;SDS011;4926;42.670;23.316;2023-03-19T05:39:05;22.33;;;12.05;;
9773;SDS011;4926;42.670;23.316;2023-03-19T05:41:33;16.08;;;10.00;;
9773;SDS011;4926;42.670;23.316;2023-03-19T05:44:01;15.40;;;10.23;;
9773;SDS011;4926;42.670;23.316;2023-03-19T05:46:28;20.80;;;11.10;;
9773;SDS011;4926;42.670;23.316;2023-03-19T05:48:56;16.50;;;10.50;;
9773;SDS011;4926;42.670;23.316;2023-03-19T05:51:25;14.93;;;8.95;;
9773;SDS011;4926;42.670;23.316;2023-03-19T05:53:51;16.77;;;9.13;;
9773;SDS011;4926;42.670;23.316;2023-03-19T05:56:23;12.60;;;8.25;;
9773;SDS011;4926;42.670;23.316;2023-03-19T05:58:50;13.88;;;8.23;;
9773;SDS011;4926;42.670;23.316;2023-03-19T06:01:16;12.73;;;7.07;;
9773;SDS011;4926;42.670;23.316;2023-03-19T06:03:46;10.75;;;6.68;;
9773;SDS011;4926;42.670;23.316;2023-03-19T06:06:16;10.82;;;6.70;;
9773;SDS011;4926;42.670;23.316;2023-03-19T06:08:42;11.75;;;6.68;;
9773;SDS011;4926;42.670;23.316;2023-03-19T06:11:12;11.38;;;6.78;;
9773;SDS011;4926;42.670;23.316;2023-03-19T06:13:39;10.63;;;7.25;;
9773;SDS011;4926;42.670;23.316;2023-03-19T06:16:10;8.52;;;6.20;;
9773;SDS011;4926;42.670;23.316;2023-03-19T06:18:37;9.35;;;6.90;;
9773;SDS011;4926;42.670;23.316;2023-03-19T06:21:04;13.13;;;7.43;;
9773;SDS011;4926;42.670;23.316;2023-03-19T06:23:33;13.27;;;6.72;;
9773;SDS011;4926;42.670;23.316;2023-03-19T06:26:05;13.57;;;7.65;;
9773;SDS011;4926;42.670;23.316;2023-03-19T06:28:32;11.23;;;8.40;;
9773;SDS011;4926;42.670;23.316;2023-03-19T06:30:59;10.10;;;7.20;;
9773;SDS011;4926;42.670;23.316;2023-03-19T06:33:26;9.93;;;6.70;;
9773;SDS011;4926;42.670;23.316;2023-03-19T06:35:56;11.63;;;7.45;;
9773;SDS011;4926;42.670;23.316;2023-03-19T06:38:22;10.98;;;7.53;;
9773;SDS011;4926;42.670;23.316;2023-03-19T06:40:51;11.60;;;7.65;;
9773;SDS011;4926;42.670;23.316;2023-03-19T06:43:17;10.63;;;7.38;;
9773;SDS011;4926;42.670;23.316;2023-03-19T06:45:44;10.27;;;7.53;;
9773;SDS011;4926;42.670;23.316;2023-03-19T06:48:11;11.27;;;8.00;;
9773;SDS011;4926;42.670;23.316;2023-03-19T06:50:39;11.45;;;7.47;;
9773;SDS011;4926;42.670;23.316;2023-03-19T06:53:08;13.13;;;7.93;;
9773;SDS011;4926;42.670;23.316;2023-03-19T06:55:35;13.05;;;7.72;;
9773;SDS011;4926;42.670;23.316;2023-03-19T06:58:03;10.45;;;7.22;;
9773;SDS011;4926;42.670;23.316;2023-03-19T07:00:31;11.05;;;8.10;;
9773;SDS011;4926;42.670;23.316;2023-03-19T07:02:58;12.52;;;9.25;;
9773;SDS011;4926;42.670;23.316;2023-03-19T07:05:27;11.75;;;7.53;;
9773;SDS011;4926;42.670;23.316;2023-03-19T07:07:53;9.70;;;8.23;;
9773;SDS011;4926;42.670;23.316;2023-03-19T07:10:20;10.98;;;8.18;;
9773;SDS011;4926;42.670;23.316;2023-03-19T07:12:49;10.95;;;7.28;;
9773;SDS011;4926;42.670;23.316;2023-03-19T07:15:17;10.65;;;7.50;;
9773;SDS011;4926;42.670;23.316;2023-03-19T07:17:47;14.10;;;9.07;;
9773;SDS011;4926;42.670;23.316;2023-03-19T07:20:14;10.80;;;8.52;;
9773;SDS011;4926;42.670;23.316;2023-03-19T07:22:46;12.73;;;8.70;;
9773;SDS011;4926;42.670;23.316;2023-03-19T07:25:12;16.77;;;9.35;;
9773;SDS011;4926;42.670;23.316;2023-03-19T07:27:39;11.90;;;8.63;;
9773;SDS011;4926;42.670;23.316;2023-03-19T07:30:06;13.43;;;9.18;;
9773;SDS011;4926;42.670;23.316;2023-03-19T07:32:36;11.63;;;8.73;;
9773;SDS011;4926;42.670;23.316;2023-03-19T07:35:09;13.48;;;8.88;;
9773;SDS011;4926;42.670;23.316;2023-03-19T07:37:38;14.13;;;8.98;;
9773;SDS011;4926;42.670;23.316;2023-03-19T07:40:05;14.88;;;9.18;;
9773;SDS011;4926;42.670;23.316;2023-03-19T07:42:35;13.18;;;8.85;;
9773;SDS011;4926;42.670;23.316;2023-03-19T07:45:02;13.48;;;9.05;;
9773;SDS011;4926;42.670;23.316;2023-03-19T07:47:30;10.85;;;7.90;;
9773;SDS011;4926;42.670;23.316;2023-03-19T07:49:59;9.75;;;7.80;;
9773;SDS011;4926;42.670;23.316;2023-03-19T07:52:26;12.73;;;8.82;;
9773;SDS011;4926;42.670;23.316;2023-03-19T07:54:53;12.02;;;8.38;;
9773;SDS011;4926;42.670;23.316;2023-03-19T07:57:20;9.75;;;8.18;;
9773;SDS011;4926;42.670;23.316;2023-03-19T07:59:46;11.05;;;8.23;;
9773;SDS011;4926;42.670;23.316;2023-03-19T08:02:13;12.05;;;8.60;;
9773;SDS011;4926;42.670;23.316;2023-03-19T08:04:40;11.60;;;8.15;;
9773;SDS011;4926;42.670;23.316;2023-03-19T08:07:08;12.32;;;8.32;;
9773;SDS011;4926;42.670;23.316;2023-03-19T08:09:37;11.48;;;8.40;;
9773;SDS011;4926;42.670;23.316;2023-03-19T08:12:06;10.30;;;8.13;;
9773;SDS011;4926;42.670;23.316;2023-03-19T08:14:37;10.73;;;7.82;;
9773;SDS011;4926;42.670;23.316;2023-03-19T08:17:04;13.57;;;8.38;;
9773;SDS011;4926;42.670;23.316;2023-03-19T08:19:34;12.25;;;8.60;;
9773;SDS011;4926;42.670;23.316;2023-03-19T08:22:01;10.85;;;8.40;;
9773;SDS011;4926;42.670;23.316;2023-03-19T08:24:32;13.85;;;8.90;;
9773;SDS011;4926;42.670;23.316;2023-03-19T08:26:58;11.40;;;9.15;;
9773;SDS011;4926;42.670;23.316;2023-03-19T08:29:25;13.18;;;9.68;;
9773;SDS011;4926;42.670;23.316;2023-03-19T08:31:54;13.00;;;9.45;;
9773;SDS011;4926;42.670;23.316;2023-03-19T08:34:25;10.93;;;9.40;;
9773;SDS011;4926;42.670;23.316;2023-03-19T08:36:54;14.02;;;9.15;;
9773;SDS011;4926;42.670;23.316;2023-03-19T08:39:21;11.95;;;8.95;;
9773;SDS011;4926;42.670;23.316;2023-03-19T08:41:50;12.77;;;8.38;;
9773;SDS011;4926;42.670;23.316;2023-03-19T08:44:17;13.27;;;9.20;;
9773;SDS011;4926;42.670;23.316;2023-03-19T08:46:44;13.38;;;8.38;;
9773;SDS011;4926;42.670;23.316;2023-03-19T08:49:10;10.52;;;8.88;;
9773;SDS011;4926;42.670;23.316;2023-03-19T08:51:39;12.10;;;9.43;;
9773;SDS011;4926;42.670;23.316;2023-03-19T08:54:06;16.42;;;10.88;;
9773;SDS011;4926;42.670;23.316;2023-03-19T08:56:35;10.70;;;8.73;;
9773;SDS011;4926;42.670;23.316;2023-03-19T08:59:06;12.30;;;8.25;;
9773;SDS011;4926;42.670;23.316;2023-03-19T09:01:33;10.55;;;8.68;;
9773;SDS011;4926;42.670;23.316;2023-03-19T09:03:59;12.02;;;8.88;;
9773;SDS011;4926;42.670;23.316;2023-03-19T09:06:26;12.32;;;9.00;;
9773;SDS011;4926;42.670;23.316;2023-03-19T09:08:58;10.25;;;8.30;;
9773;SDS011;4926;42.670;23.316;2023-03-19T09:11:25;10.85;;;8.60;;
9773;SDS011;4926;42.670;23.316;2023-03-19T09:13:52;11.68;;;8.45;;
9773;SDS011;4926;42.670;23.316;2023-03-19T09:16:20;10.27;;;7.75;;
9773;SDS011;4926;42.670;23.316;2023-03-19T09:18:47;10.27;;;8.05;;
9773;SDS011;4926;42.670;23.316;2023-03-19T09:21:13;11.40;;;7.95;;
9773;SDS011;4926;42.670;23.316;2023-03-19T09:23:43;9.32;;;8.07;;
9773;SDS011;4926;42.670;23.316;2023-03-19T09:26:12;9.25;;;7.68;;
9773;SDS011;4926;42.670;23.316;2023-03-19T09:28:41;11.43;;;8.23;;
9773;SDS011;4926;42.670;23.316;2023-03-19T09:31:08;12.23;;;8.70;;
9773;SDS011;4926;42.670;23.316;2023-03-19T09:33:36;14.48;;;8.63;;
9773;SDS011;4926;42.670;23.316;2023-03-19T09:36:03;10.18;;;8.63;;
9773;SDS011;4926;42.670;23.316;2023-03-19T09:38:33;11.07;;;8.65;;
9773;SDS011;4926;42.670;23.316;2023-03-19T09:41:08;13.98;;;8.57;;
9773;SDS011;4926;42.670;23.316;2023-03-19T09:43:47;9.75;;;8.23;;
9773;SDS011;4926;42.670;23.316;2023-03-19T09:46:23;10.55;;;8.35;;
9773;SDS011;4926;42.670;23.316;2023-03-19T09:48:58;11.35;;;8.35;;
9773;SDS011;4926;42.670;23.316;2023-03-19T09:51:38;12.60;;;8.10;;
9773;SDS011;4926;42.670;23.316;2023-03-19T09:54:14;11.32;;;8.50;;
9773;SDS011;4926;42.670;23.316;2023-03-19T09:56:56;11.68;;;8.15;;
9773;SDS011;4926;42.670;23.316;2023-03-19T09:59:24;11.73;;;8.32;;
9773;SDS011;4926;42.670;23.316;2023-03-19T10:01:54;10.75;;;7.88;;
9773;SDS011;4926;42.670;23.316;2023-03-19T10:07:24;9.63;;;7.40;;
9773;SDS011;4926;42.670;23.316;2023-03-19T10:10:06;9.20;;;7.53;;
9773;SDS011;4926;42.670;23.316;2023-03-19T10:12:49;10.65;;;8.38;;
9773;SDS011;4926;42.670;23.316;2023-03-19T10:15:24;10.63;;;8.60;;
9773;SDS011;4926;42.670;23.316;2023-03-19T10:17:55;13.55;;;8.93;;
9773;SDS011;4926;42.670;23.316;2023-03-19T10:20:29;11.95;;;8.73;;
9773;SDS011;4926;42.670;23.316;2023-03-19T10:23:09;11.10;;;8.35;;
9773;SDS011;4926;42.670;23.316;2023-03-19T10:25:53;14.02;;;8.93;;
9773;SDS011;4926;42.670;23.316;2023-03-19T10:28:22;13.75;;;9.02;;
9773;SDS011;4926;42.670;23.316;2023-03-19T10:30:50;10.05;;;8.63;;
9773;SDS011;4926;42.670;23.316;2023-03-19T10:33:23;11.77;;;8.85;;
9773;SDS011;4926;42.670;23.316;2023-03-19T10:35:56;12.05;;;9.10;;
9773;SDS011;4926;42.670;23.316;2023-03-19T10:38:26;13.65;;;10.18;;
9773;SDS011;4926;42.670;23.316;2023-03-19T10:41:03;12.63;;;8.68;;
9773;SDS011;4926;42.670;23.316;2023-03-19T10:43:42;9.25;;;8.35;;
9773;SDS011;4926;42.670;23.316;2023-03-19T10:46:15;11.20;;;8.80;;
9773;SDS011;4926;42.670;23.316;2023-03-19T10:48:42;12.68;;;8.68;;
9773;SDS011;4926;42.670;23.316;2023-03-19T10:51:12;13.02;;;10.10;;
9773;SDS011;4926;42.670;23.316;2023-03-19T10:53:41;11.95;;;8.80;;
9773;SDS011;4926;42.670;23.316;2023-03-19T10:56:15;12.13;;;8.20;;
9773;SDS011;4926;42.670;23.316;2023-03-19T10:58:54;10.52;;;8.02;;
9773;SDS011;4926;42.670;23.316;2023-03-19T11:01:25;9.68;;;8.57;;
9773;SDS011;4926;42.670;23.316;2023-03-19T11:03:54;10.82;;;8.55;;
9773;SDS011;4926;42.670;23.316;2023-03-19T11:06:26;11.25;;;9.20;;
9773;SDS011;4926;42.670;23.316;2023-03-19T11:08:58;10.20;;;7.97;;
9773;SDS011;4926;42.670;23.316;2023-03-19T11:11:32;11.40;;;8.45;;
9773;SDS011;4926;42.670;23.316;2023-03-19T11:14:07;11.52;;;8.25;;
9773;SDS011;4926;42.670;23.316;2023-03-19T11:16:46;9.80;;;7.97;;
9773;SDS011;4926;42.670;23.316;2023-03-19T11:19:15;11.98;;;7.60;;
9773;SDS011;4926;42.670;23.316;2023-03-19T11:24:51;11.05;;;7.45;;
9773;SDS011;4926;42.670;23.316;2023-03-19T11:27:28;10.77;;;7.90;;
9773;SDS011;4926;42.670;23.316;2023-03-19T11:29:59;11.98;;;7.85;;
9773;SDS011;4926;42.670;23.316;2023-03-19T11:35:31;9.85;;;7.88;;
9773;SDS011;4926;42.670;23.316;2023-03-19T11:38:07;13.50;;;7.80;;
9773;SDS011;4926;42.670;23.316;2023-03-19T11:40:43;9.60;;;6.88;;
9773;SDS011;4926;42.670;23.316;2023-03-19T11:43:29;9.48;;;6.97;;
9773;SDS011;4926;42.670;23.316;2023-03-19T11:46:17;11.38;;;6.90;;
9773;SDS011;4926;42.670;23.316;2023-03-19T11:49:02;8.52;;;7.25;;
9773;SDS011;4926;42.670;23.316;2023-03-19T11:51:48;10.23;;;7.22;;
9773;SDS011;4926;42.670;23.316;2023-03-19T11:54:20;10.15;;;7.35;;
9773;SDS011;4926;42.670;23.316;2023-03-19T11:56:54;7.78;;;6.43;;
9773;SDS011;4926;42.670;23.316;2023-03-19T11:59:40;10.05;;;6.97;;
9773;SDS011;4926;42.670;23.316;2023-03-19T12:05:19;8.85;;;6.75;;
9773;SDS011;4926;42.670;23.316;2023-03-19T12:07:55;7.82;;;6.30;;
9773;SDS011;4926;42.670;23.316;2023-03-19T12:10:37;9.63;;;6.35;;
9773;SDS011;4926;42.670;23.316;2023-03-19T12:13:14;7.15;;;5.75;;
9773;SDS011;4926;42.670;23.316;2023-03-19T12:15:56;8.63;;;7.05;;
9773;SDS011;4926;42.670;23.316;2023-03-19T12:18:47;10.55;;;7.25;;
9773;SDS011;4926;42.670;23.316;2023-03-19T12:21:27;8.27;;;6.63;;
9773;SDS011;4926;42.670;23.316;2023-03-19T12:24:08;12.77;;;7.28;;
9773;SDS011;4926;42.670;23.316;2023-03-19T12:26:50;7.15;;;6.30;;
9773;SDS011;4926;42.670;23.316;2023-03-19T12:29:26;10.10;;;6.70;;
9773;SDS011;4926;42.670;23.316;2023-03-19T12:32:05;9.57;;;6.68;;
9773;SDS011;4926;42.670;23.316;2023-03-19T12:34:44;9.80;;;5.75;;
9773;SDS011;4926;42.670;23.316;2023-03-19T12:37:17;8.57;;;6.13;;
9773;SDS011;4926;42.670;23.316;2023-03-19T12:39:53;8.05;;;6.15;;
9773;SDS011;4926;42.670;23.316;2023-03-19T12:42:34;10.80;;;6.30;;
9773;SDS011;4926;42.670;23.316;2023-03-19T12:45:03;9.15;;;6.32;;
9773;SDS011;4926;42.670;23.316;2023-03-19T12:47:41;8.20;;;6.32;;
9773;SDS011;4926;42.670;23.316;2023-03-19T12:50:13;10.00;;;5.85;;
9773;SDS011;4926;42.670;23.316;2023-03-19T12:52:45;8.02;;;5.85;;
9773;SDS011;4926;42.670;23.316;2023-03-19T12:55:15;6.95;;;5.60;;
9773;SDS011;4926;42.670;23.316;2023-03-19T12:57:47;10.68;;;5.90;;
9773;SDS011;4926;42.670;23.316;2023-03-19T13:00:25;7.47;;;5.57;;
9773;SDS011;4926;42.670;23.316;2023-03-19T13:02:59;11.10;;;5.80;;
9773;SDS011;4926;42.670;23.316;2023-03-19T13:05:33;9.18;;;7.15;;
9773;SDS011;4926;42.670;23.316;2023-03-19T13:08:06;13.70;;;5.90;;
9773;SDS011;4926;42.670;23.316;2023-03-19T13:10:41;6.72;;;4.85;;
9773;SDS011;4926;42.670;23.316;2023-03-19T13:13:14;6.20;;;4.60;;
9773;SDS011;4926;42.670;23.316;2023-03-19T13:15:53;5.95;;;4.72;;
9773;SDS011;4926;42.670;23.316;2023-03-19T13:18:30;6.50;;;4.47;;
9773;SDS011;4926;42.670;23.316;2023-03-19T13:21:12;6.85;;;5.00;;
9773;SDS011;4926;42.670;23.316;2023-03-19T13:23:47;7.85;;;5.15;;
9773;SDS011;4926;42.670;23.316;2023-03-19T13:26:27;8.43;;;5.35;;
9773;SDS011;4926;42.670;23.316;2023-03-19T13:28:59;6.45;;;5.20;;
9773;SDS011;4926;42.670;23.316;2023-03-19T13:31:28;7.78;;;5.40;;
9773;SDS011;4926;42.670;23.316;2023-03-19T13:34:01;11.68;;;5.45;;
9773;SDS011;4926;42.670;23.316;2023-03-19T13:36:34;6.95;;;5.80;;
9773;SDS011;4926;42.670;23.316;2023-03-19T13:39:03;8.60;;;5.40;;
9773;SDS011;4926;42.670;23.316;2023-03-19T13:41:51;6.95;;;5.18;;
9773;SDS011;4926;42.670;23.316;2023-03-19T13:44:31;7.63;;;5.82;;
9773;SDS011;4926;42.670;23.316;2023-03-19T13:47:01;6.70;;;5.65;;
9773;SDS011;4926;42.670;23.316;2023-03-19T13:50:00;8.00;;;5.57;;
9773;SDS011;4926;42.670;23.316;2023-03-19T13:52:46;9.88;;;5.80;;
9773;SDS011;4926;42.670;23.316;2023-03-19T13:55:29;8.00;;;5.43;;
9773;SDS011;4926;42.670;23.316;2023-03-19T13:58:14;8.38;;;5.53;;
9773;SDS011;4926;42.670;23.316;2023-03-19T14:01:00;7.28;;;5.40;;
9773;SDS011;4926;42.670;23.316;2023-03-19T14:03:27;6.97;;;5.18;;
9773;SDS011;4926;42.670;23.316;2023-03-19T14:05:56;7.32;;;5.40;;
9773;SDS011;4926;42.670;23.316;2023-03-19T14:08:25;7.45;;;5.88;;
9773;SDS011;4926;42.670;23.316;2023-03-19T14:10:54;7.85;;;5.30;;
9773;SDS011;4926;42.670;23.316;2023-03-19T14:13:28;7.97;;;5.50;;
9773;SDS011;4926;42.670;23.316;2023-03-19T14:16:11;6.53;;;5.50;;
9773;SDS011;4926;42.670;23.316;2023-03-19T14:18:43;6.28;;;5.68;;
9773;SDS011;4926;42.670;23.316;2023-03-19T14:21:13;9.57;;;5.85;;
9773;SDS011;4926;42.670;23.316;2023-03-19T14:23:41;8.77;;;5.18;;
9773;SDS011;4926;42.670;23.316;2023-03-19T14:26:18;7.90;;;5.60;;
9773;SDS011;4926;42.670;23.316;2023-03-19T14:28:51;10.73;;;5.00;;
9773;SDS011;4926;42.670;23.316;2023-03-19T14:31:28;6.68;;;5.05;;
9773;SDS011;4926;42.670;23.316;2023-03-19T14:36:51;6.13;;;5.15;;
9773;SDS011;4926;42.670;23.316;2023-03-19T14:39:23;8.63;;;5.07;;
9773;SDS011;4926;42.670;23.316;2023-03-19T14:41:55;7.80;;;5.38;;
9773;SDS011;4926;42.670;23.316;2023-03-19T14:47:58;8.38;;;5.05;;
9773;SDS011;4926;42.670;23.316;2023-03-19T14:53:45;9.48;;;5.07;;
9773;SDS011;4926;42.670;23.316;2023-03-19T14:56:15;12.02;;;5.82;;
9773;SDS011;4926;42.670;23.316;2023-03-19T14:58:48;6.75;;;5.20;;
9773;SDS011;4926;42.670;23.316;2023-03-19T15:01:19;9.18;;;5.00;;
9773;SDS011;4926;42.670;23.316;2023-03-19T15:03:52;9.30;;;5.22;;
9773;SDS011;4926;42.670;23.316;2023-03-19T15:06:28;6.88;;;4.97;;
9773;SDS011;4926;42.670;23.316;2023-03-19T15:08:58;7.78;;;4.82;;
9773;SDS011;4926;42.670;23.316;2023-03-19T15:11:34;7.10;;;4.85;;
9773;SDS011;4926;42.670;23.316;2023-03-19T15:14:21;6.70;;;4.80;;
9773;SDS011;4926;42.670;23.316;2023-03-19T15:17:06;7.53;;;5.32;;
9773;SDS011;4926;42.670;23.316;2023-03-19T15:19:38;7.63;;;5.05;;
9773;SDS011;4926;42.670;23.316;2023-03-19T15:22:11;6.63;;;5.00;;
9773;SDS011;4926;42.670;23.316;2023-03-19T15:24:39;7.47;;;5.28;;
9773;SDS011;4926;42.670;23.316;2023-03-19T15:27:16;7.80;;;5.20;;